Portada
METAR-TAF:

METAR-TAF

Aeroports :

Subic Bay, Filipines

latitud: 14-48N, longitud: 120-16E, altitud: 18 m

Observació

L'informe es va fer fa 20 minuts, a les 17:00 UTC
Vent 5 kt del Est/Nord-Est
Temperatura 23°C
Humitat 69%
Pressió 1018 hPa
Visibilitat 10 km o més
Escasses núvols a una alçada de 2000 ft

METAR: RPLB 211700Z 07005KT 9999 FEW020 23/17 Q1018 NOSIG RMK A3006

Hora: 01:20 (17:20 UTC)

Pronòstic

L'informe es va fer fa 6 hores i 20 minuts, a les 11:00 UTC
Pronòstic vàlid del 21 a les 12 UTC al 22 a les 12 UTC
Vent 8 kt del Est/Nord-Est
Visibilitat 10 km o més
Escasses núvols a una alçada de 2000 ft
Núvols disperses a una alçada de 8000 ft
Temporalment
l' 21 a les 12 UTC al 21 a les 18 UTC
Vent 12 kt del Est/Nord-Est
Núvols disperses a una alçada de 2000 ft
Cel ennuvolat a una alçada de 8000 ft

TAF: RPLB 211100Z 2112/2212 06008KT 9999 FEW020 SCT080 TX30/2206Z TN21/2121Z TEMPO 2112/2118 06012KT SCT020 BKN080

Observacions i pronòstics meteorològics de més de 4000 aeroports (METAR i TAF).

Les estacions disponibles són els punts grocs i vermells al mapa.

Posi el ratolí al punt desitjat per veure el nom de l'estació.

Feu clic per veure les observacions i els pronòstics meteorològics.

Per canviar el mapa: feu clic els botons verds amb una creu de color negre per apropar; al botó verd amb un guió per allunyar la imatge; o en les fletxes verdes per a mapes adjacents.


METAR-TAF: